Tabiona
, Tabiona
Last Weather Update:12/30/2011 11:00:00 PM
Date
ETo
ETc
Rain
Irrigation
Req
Temp
Max
Temp
Min
Temp
Avg
Avg RH
Avg Wind
Avg Solar
inches
inches
incehs
inches
F
F
F
%
%
watts/m2
11/01/2011 0.06" 0.00" 0.02" -0.02" 45.1° 26.1° 34.9° 60.6% 11.5 MPH 130.3w/m2
11/02/2011 0.11" 0.00" 0.00" 0.00" 40.8° 15.9° 26.6° 48.6% 5.9 MPH 260.7w/m2
11/03/2011 0.11" 0.00" 0.00" 0.00" 44.9° 13.5° 26.5° 55.5% 6.5 MPH 261.6w/m2
11/04/2011 0.11" 0.00" 0.05" -0.04" 51.6° 15.4° 34.9° 56.0% 5.4 MPH 221.1w/m2
11/05/2011 0.08" 0.00" 0.01" -0.01" 34.8° 17.7° 28.3° 60.6% 11.1 MPH 246.5w/m2
11/06/2011 0.04" 0.00" 0.00" 0.00" 38.3° 13.2° 26.2° 62.6% 2.5 MPH 120.0w/m2
11/07/2011 0.06" 0.00" 0.00" 0.00" 42.4° 18.8° 28.8° 69.8% 4.3 MPH 182.2w/m2
11/08/2011 0.10" 0.00" 0.00" 0.00" 43.8° 15.9° 28.9° 50.5% 7.7 MPH 221.1w/m2
11/09/2011 0.10" 0.00" 0.00" 0.00" 45.2° 10.1° 25.6° 51.5% 5.9 MPH 233.4w/m2
11/10/2011 0.11" 0.00" 0.00" 0.00" 49.0° 13.7° 28.1° 42.6% 5.7 MPH 233.0w/m2
11/11/2011 0.08" 0.00" 0.00" 0.00" 47.0° 11.1° 28.0° 45.6% 3.4 MPH 195.1w/m2
11/12/2011 0.04" 0.00" 0.00" 0.00" 43.0° 23.4° 32.4° 67.8% 6.2 MPH 95.2w/m2
11/13/2011 0.09" 0.00" 0.00" 0.00" 45.8° 28.8° 35.8° 62.4% 11.8 MPH 196.7w/m2
11/14/2011 0.13" 0.00" 0.00" 0.00" 48.1° 22.9° 36.9° 32.9% 11.3 MPH 223.1w/m2
11/15/2011 0.10" 0.00" 0.00" 0.00" 41.9° 26.8° 33.4° 40.8% 12.9 MPH 194.5w/m2
11/16/2011 0.10" 0.00" 0.00" 0.00" 45.0° 21.0° 31.5° 37.0% 7.4 MPH 216.3w/m2
11/17/2011 0.11" 0.00" 0.00" 0.00" 57.0° 18.0° 32.3° 44.2% 4.9 MPH 218.8w/m2
11/18/2011 0.08" 0.00" 0.00" 0.00" 52.9° 17.4° 34.5° 54.1% 4.7 MPH 165.6w/m2
11/19/2011 0.06" 0.00" 0.00" 0.00" 37.1° 23.3° 28.9° 62.3% 8.0 MPH 201.4w/m2
11/20/2011 0.03" 0.00" 0.02" -0.02" 41.8° 25.4° 29.8° 82.8% 1.4 MPH 101.1w/m2
11/21/2011 0.04" 0.00" 0.15" -0.12" 44.4° 23.1° 32.1° 83.7% 2.6 MPH 120.6w/m2
11/22/2011 0.08" 0.00" 0.00" 0.00" 50.3° 21.4° 32.4° 64.9% 6.1 MPH 189.7w/m2
11/23/2011 0.07" 0.00" 0.00" 0.00" 48.4° 22.0° 31.3° 68.2% 6.2 MPH 161.0w/m2
11/24/2011 0.04" 0.00" 0.00" 0.00" 45.6° 24.4° 31.2° 70.5% 5.4 MPH 102.1w/m2
11/25/2011 0.07" 0.00" 0.00" 0.00" 44.1° 23.1° 32.3° 56.0% 12.2 MPH 135.2w/m2
11/26/2011 0.08" 0.00" 0.00" 0.00" 41.4° 13.9° 26.9° 37.9% 5.9 MPH 186.3w/m2
11/27/2011 0.08" 0.00" 0.00" 0.00" 47.3° 10.8° 25.6° 57.2% 3.0 MPH 189.8w/m2
11/28/2011 0.05" 0.00" 0.00" 0.00" 47.4° 12.1° 28.0° 58.7% 2.4 MPH 142.3w/m2
11/29/2011 0.10" 0.00" 0.00" 0.00" 52.8° 23.1° 34.6° 50.3% 6.1 MPH 195.2w/m2
11/30/2011 0.08" 0.00" 0.00" 0.00" 52.0° 17.3° 32.9° 55.9% 5.9 MPH 176.9w/m2
Totals: 2.40" 0.00" 0.25" -0.20" 57.0° 10.1° 30.6° 56.4% 6.5 MPH 183.9w/m2